Time;durP1;ratioP1;P1;durP2;ratioP2;P2;SDS_P1;SDS_P2;PMS_P1;PMS_P2;Temp;Humidity;BMP_temperature;BMP_pressure;BME280_temperature;BME280_humidity;BME280_pressure;Samples;Min_cycle;Max_cycle;Signal;HPM_P1;HPM_P2
2022/06/03 00:02:43;;;;;;;5.78;1.67;;;;;;;;;;5043420;28;20021;-75
2022/06/03 00:05:15;;;;;;;2.90;1.15;;;;;;;;;;5038781;28;20033;-75
2022/06/03 00:07:56;;;;;;;5.10;1.27;;;;;;;;;;5032799;28;20025;-75
2022/06/03 00:10:28;;;;;;;6.57;1.73;;;;;;;;;;5047510;28;20913;-75
2022/06/03 00:12:54;;;;;;;;;;;;;;;;;;5049199;28;20951;-75
2022/06/03 00:15:36;;;;;;;7.15;1.45;;;;;;;;;;5038420;28;19912;-75
2022/06/03 00:18:05;;;;;;;6.07;1.10;;;;;;;;;;5034252;28;20030;-75
2022/06/03 00:20:37;;;;;;;5.25;1.30;;;;;;;;;;5039464;28;20100;-75
2022/06/03 00:23:03;;;;;;;;;;;;;;;;;;5047547;28;20049;-75
2022/06/03 00:25:47;;;;;;;4.60;1.23;;;;;;;;;;5053094;28;20003;-75
2022/06/03 00:28:16;;;;;;;6.43;1.23;;;;;;;;;;5046137;28;20033;-75
2022/06/03 00:30:54;;;;;;;9.20;1.33;;;;;;;;;;5045941;28;20758;-75
2022/06/03 00:33:30;;;;;;;12.00;1.83;;;;;;;;;;5051187;28;20370;-75
2022/06/03 00:36:01;;;;;;;6.30;1.30;;;;;;;;;;5043759;28;20029;-75
2022/06/03 00:38:30;;;;;;;8.95;1.52;;;;;;;;;;5041429;28;20029;-75
2022/06/03 00:41:15;;;;;;;7.38;1.70;;;;;;;;;;5039606;28;20064;-75
2022/06/03 00:43:46;;;;;;;4.93;1.30;;;;;;;;;;5048722;28;20052;-75
2022/06/03 00:46:31;;;;;;;5.22;1.75;;;;;;;;;;5033202;28;20052;-75
2022/06/03 00:49:02;;;;;;;7.93;1.60;;;;;;;;;;5032355;28;20689;-75
2022/06/03 00:51:38;;;;;;;13.80;1.58;;;;;;;;;;5046430;28;20037;-76
2022/06/03 00:54:20;;;;;;;6.28;1.40;;;;;;;;;;5063334;28;20044;-75
2022/06/03 00:56:53;;;;;;;5.13;1.40;;;;;;;;;;5039068;28;20045;-75
2022/06/03 00:59:42;;;;;;;10.18;1.50;;;;;;;;;;5037422;28;20037;-75
2022/06/03 01:02:14;;;;;;;8.18;1.52;;;;;;;;;;5032044;28;20079;-75
2022/06/03 01:04:52;;;;;;;5.00;1.75;;;;;;;;;;5043013;28;20499;-76
2022/06/03 01:07:18;;;;;;;7.80;1.55;;;;;;;;;;5050234;28;20029;-75
2022/06/03 01:10:07;;;;;;;8.52;1.60;;;;;;;;;;5052369;28;20029;-75
2022/06/03 01:12:45;;;;;;;3.75;1.48;;;;;;;;;;5037089;28;20061;-75
2022/06/03 01:15:11;;;;;;;4.05;1.25;;;;;;;;;;5038589;28;20049;-75
2022/06/03 01:17:43;;;;;;;6.68;1.77;;;;;;;;;;5037922;28;20030;-75
2022/06/03 01:20:28;;;;;;;6.63;2.05;;;;;;;;;;5038378;28;20116;-75
2022/06/03 01:23:05;;;;;;;6.65;1.70;;;;;;;;;;5044203;28;20036;-75
2022/06/03 01:25:34;;;;;;;7.60;1.75;;;;;;;;;;5051498;28;20037;-75
2022/06/03 01:28:19;;;;;;;6.32;1.90;;;;;;;;;;5049291;28;20037;-75
2022/06/03 01:31:03;;;;;;;7.57;1.70;;;;;;;;;;5049832;28;20032;-75
2022/06/03 01:33:48;;;;;;;5.45;1.90;;;;;;;;;;5042458;28;20036;-75
2022/06/03 01:36:32;;;;;;;11.85;1.80;;;;;;;;;;5042729;28;20428;-75
2022/06/03 01:39:05;;;;;;;5.32;1.65;;;;;;;;;;5045156;28;20095;-75
2022/06/03 01:41:31;;;;;;;9.00;1.60;;;;;;;;;;5046327;28;20036;-75
2022/06/03 01:44:08;;;;;;;5.03;1.00;;;;;;;;;;5050523;28;20036;-75
2022/06/03 01:46:39;;;;;;;4.38;1.52;;;;;;;;;;5044146;28;20033;-75
2022/06/03 01:49:30;;;;;;;6.87;1.87;;;;;;;;;;5048811;28;20410;-76
2022/06/03 01:52:15;;;;;;;6.60;1.63;;;;;;;;;;5050339;28;20055;-75
2022/06/03 01:55:07;;;;;;;7.88;1.85;;;;;;;;;;5042690;28;20348;-75
2022/06/03 01:57:51;;;;;;;7.68;1.52;;;;;;;;;;5048244;28;20093;-76
2022/06/03 02:00:29;;;;;;;4.00;1.40;;;;;;;;;;5049903;28;20025;-75
2022/06/03 02:02:55;;;;;;;6.95;1.98;;;;;;;;;;5044384;28;20037;-75
2022/06/03 02:05:37;;;;;;;7.82;1.80;;;;;;;;;;5048955;28;20037;-75
2022/06/03 02:08:09;;;;;;;5.20;2.10;;;;;;;;;;5040574;28;20107;-75
2022/06/03 02:10:35;;;;;;;;;;;;;;;;;;5036542;28;20076;-75
2022/06/03 02:13:12;;;;;;;10.73;1.95;;;;;;;;;;5044857;28;19917;-75
2022/06/03 02:15:57;;;;;;;6.82;1.63;;;;;;;;;;5045811;28;20478;-75
2022/06/03 02:18:42;;;;;;;10.80;2.30;;;;;;;;;;5040709;28;20040;-75
2022/06/03 02:21:26;;;;;;;8.40;2.55;;;;;;;;;;5041697;28;20161;-75
2022/06/03 02:23:55;;;;;;;9.10;1.70;;;;;;;;;;5041520;28;20044;-75
2022/06/03 02:26:44;;;;;;;8.85;2.25;;;;;;;;;;5041753;28;20821;-75
2022/06/03 02:32:07;;;;;;;9.80;2.15;;;;;;;;;;5012103;28;20636;-75
2022/06/03 02:34:33;;;;;;;;;;;;;;;;;;5031123;28;20037;-75
2022/06/03 02:36:59;;;;;;;9.45;2.47;;;;;;;;;;5022350;28;19916;-75
2022/06/03 02:39:43;;;;;;;5.60;1.55;;;;;;;;;;5019008;28;20034;-75
2022/06/03 02:42:12;;;;;;;4.13;1.40;;;;;;;;;;5022592;28;20865;-75
2022/06/03 02:44:50;;;;;;;6.38;1.48;;;;;;;;;;5028390;28;20034;-75
2022/06/03 02:47:35;;;;;;;5.38;1.33;;;;;;;;;;5021887;28;20041;-75
2022/06/03 02:50:10;;;;;;;6.13;1.70;;;;;;;;;;5012301;28;20136;-75
2022/06/03 02:52:45;;;;;;;6.22;1.45;;;;;;;;;;5025694;28;20482;-76
2022/06/03 02:55:29;;;;;;;9.50;1.48;;;;;;;;;;5018085;28;20407;-75
2022/06/03 02:58:11;;;;;;;5.28;1.63;;;;;;;;;;5026617;28;20033;-75
2022/06/03 03:00:37;;;;;;;18.98;5.20;;;;;;;;;;5014838;28;20032;-75
2022/06/03 03:03:24;;;;;;;21.00;6.20;;;;;;;;;;5026874;28;20034;-75
2022/06/03 03:05:59;;;;;;;15.20;4.20;;;;;;;;;;5025082;28;20041;-75
2022/06/03 03:08:28;;;;;;;10.00;2.15;;;;;;;;;;5023413;28;20037;-75
2022/06/03 03:11:06;;;;;;;12.48;2.53;;;;;;;;;;5016206;28;20038;-75
2022/06/03 03:13:32;;;;;;;7.63;1.88;;;;;;;;;;5023618;28;20836;-75
2022/06/03 03:15:59;;;;;;;8.35;1.73;;;;;;;;;;5038451;28;20028;-74
2022/06/03 03:18:54;;;;;;;10.05;2.00;;;;;;;;;;5021985;28;20455;-74
2022/06/03 03:21:35;;;;;;;6.22;1.83;;;;;;;;;;4993211;28;20047;-75
2022/06/03 03:24:10;;;;;;;11.13;1.98;;;;;;;;;;5017272;28;20133;-75
2022/06/03 03:27:15;;;;;;;6.90;1.88;;;;;;;;;;5029358;28;20693;-76
2022/06/03 03:29:48;;;;;;;7.90;1.60;;;;;;;;;;5005008;28;20052;-75
2022/06/03 03:32:20;;;;;;;6.78;1.52;;;;;;;;;;5008306;28;20037;-75
2022/06/03 03:35:04;;;;;;;7.85;2.40;;;;;;;;;;5018989;28;20045;-75
2022/06/03 03:37:49;;;;;;;9.32;2.38;;;;;;;;;;5019094;28;20022;-75
2022/06/03 03:40:30;;;;;;;6.22;1.30;;;;;;;;;;5024610;28;20029;-75
2022/06/03 03:43:10;;;;;;;7.25;1.50;;;;;;;;;;5015418;28;20017;-75
2022/06/03 03:45:54;;;;;;;8.55;1.67;;;;;;;;;;5028003;28;20043;-75
2022/06/03 03:48:39;;;;;;;7.35;1.52;;;;;;;;;;5017139;28;20491;-75
2022/06/03 03:51:08;;;;;;;6.55;1.63;;;;;;;;;;5016512;28;20038;-75
2022/06/03 03:53:52;;;;;;;5.13;1.77;;;;;;;;;;5026064;28;20569;-75
2022/06/03 03:56:21;;;;;;;10.98;2.67;;;;;;;;;;5026914;28;20487;-75
2022/06/03 03:59:06;;;;;;;4.55;1.42;;;;;;;;;;5018236;28;20048;-75
2022/06/03 04:01:56;;;;;;;5.68;1.40;;;;;;;;;;5017881;28;20112;-75
2022/06/03 04:04:22;;;;;;;8.77;1.70;;;;;;;;;;5017586;28;20033;-75
2022/06/03 04:06:58;;;;;;;7.07;2.15;;;;;;;;;;5021772;28;20025;-75
2022/06/03 04:09:43;;;;;;;6.32;1.58;;;;;;;;;;5026390;28;20026;-74
2022/06/03 04:12:30;;;;;;;5.75;1.60;;;;;;;;;;5028424;28;20037;-76
2022/06/03 04:15:05;;;;;;;5.28;1.70;;;;;;;;;;5019708;28;20578;-75
2022/06/03 04:17:57;;;;;;;6.50;1.33;;;;;;;;;;5029520;28;20037;-75
2022/06/03 04:20:42;;;;;;;6.55;1.75;;;;;;;;;;5019713;28;20483;-75
2022/06/03 04:23:27;;;;;;;5.95;1.73;;;;;;;;;;5027013;28;20405;-75
2022/06/03 04:26:12;;;;;;;6.03;1.73;;;;;;;;;;5018735;28;20511;-75
2022/06/03 04:28:46;;;;;;;6.07;1.45;;;;;;;;;;5025099;28;20095;-75
2022/06/03 04:31:25;;;;;;;6.38;2.00;;;;;;;;;;5021325;28;20044;-75
2022/06/03 04:33:53;;;;;;;10.57;2.80;;;;;;;;;;5022019;28;20708;-75
2022/06/03 04:36:43;;;;;;;7.70;2.15;;;;;;;;;;5021938;28;20029;-75
2022/06/03 04:39:24;;;;;;;12.35;2.22;;;;;;;;;;5025480;28;20038;-75
2022/06/03 04:42:09;;;;;;;11.97;2.27;;;;;;;;;;5025247;28;20053;-74
2022/06/03 04:44:35;;;;;;;5.15;2.00;;;;;;;;;;5024839;28;20311;-75
2022/06/03 04:47:07;;;;;;;9.40;1.90;;;;;;;;;;5021528;28;20025;-75
2022/06/03 04:49:52;;;;;;;9.63;1.83;;;;;;;;;;5027656;28;20046;-75
2022/06/03 04:52:33;;;;;;;9.73;2.38;;;;;;;;;;5020669;28;20033;-75
2022/06/03 04:54:59;;;;;;;6.78;2.25;;;;;;;;;;5020359;28;20030;-75
2022/06/03 04:57:32;;;;;;;5.10;1.88;;;;;;;;;;5030223;28;20076;-75
2022/06/03 05:00:16;;;;;;;11.02;2.53;;;;;;;;;;5025058;28;20356;-75
2022/06/03 05:03:00;;;;;;;5.47;2.13;;;;;;;;;;5023138;28;20029;-75
2022/06/03 05:05:29;;;;;;;8.20;2.05;;;;;;;;;;5030842;28;20116;-75
2022/06/03 05:07:56;;;;;;;9.02;1.70;;;;;;;;;;5029521;28;20112;-75
2022/06/03 05:10:40;;;;;;;6.78;1.85;;;;;;;;;;5028321;28;20484;-75
2022/06/03 05:13:30;;;;;;;9.95;1.73;;;;;;;;;;5014185;28;20053;-75
2022/06/03 05:16:15;;;;;;;8.00;1.60;;;;;;;;;;5026365;28;20026;-75
2022/06/03 05:18:54;;;;;;;10.70;1.85;;;;;;;;;;5032211;28;20033;-75
2022/06/03 05:21:35;;;;;;;6.50;1.60;;;;;;;;;;5027708;28;20022;-75
2022/06/03 05:24:02;;;;;;;5.28;1.77;;;;;;;;;;5021652;28;20095;-75
2022/06/03 05:26:34;;;;;;;6.13;1.65;;;;;;;;;;5017432;28;20026;-75
2022/06/03 05:29:11;;;;;;;6.13;2.08;;;;;;;;;;5026024;28;20041;-75
2022/06/03 05:31:49;;;;;;;8.25;2.25;;;;;;;;;;5033734;28;20050;-75
2022/06/03 05:34:54;;;;;;;10.93;3.15;;;;;;;;;;5023125;28;20042;-75
2022/06/03 05:37:32;;;;;;;9.80;2.70;;;;;;;;;;4989755;28;20431;-77
2022/06/03 05:40:04;;;;;;;10.35;2.25;;;;;;;;;;4983463;28;20046;-76
2022/06/03 05:42:49;;;;;;;13.10;2.80;;;;;;;;;;5011371;28;20592;-76
2022/06/03 05:45:24;;;;;;;10.07;2.55;;;;;;;;;;5023206;28;20422;-74
2022/06/03 05:47:53;;;;;;;8.68;2.75;;;;;;;;;;5015915;28;20030;-76
2022/06/03 05:50:28;;;;;;;11.57;2.72;;;;;;;;;;5015740;28;20046;-76
2022/06/03 05:53:02;;;;;;;11.00;2.63;;;;;;;;;;5017162;28;20038;-76
2022/06/03 05:55:28;;;;;;;6.05;2.10;;;;;;;;;;5028965;28;20025;-76
2022/06/03 05:57:57;;;;;;;9.95;1.98;;;;;;;;;;5023165;28;20101;-76
2022/06/03 06:00:43;;;;;;;10.98;2.78;;;;;;;;;;5031620;28;20022;-76
2022/06/03 06:03:11;;;;;;;13.93;2.28;;;;;;;;;;5029312;28;20041;-76
2022/06/03 06:05:42;;;;;;;9.73;2.45;;;;;;;;;;5026368;28;20029;-76
2022/06/03 06:08:11;;;;;;;9.50;2.63;;;;;;;;;;5026879;28;20041;-76
2022/06/03 06:10:52;;;;;;;10.90;2.72;;;;;;;;;;5025937;28;20034;-76
2022/06/03 06:13:28;;;;;;;11.45;2.33;;;;;;;;;;5020566;28;20041;-76
2022/06/03 06:15:57;;;;;;;11.32;2.72;;;;;;;;;;5016630;28;20030;-76
2022/06/03 06:18:42;;;;;;;8.95;1.95;;;;;;;;;;5014830;28;20029;-76
2022/06/03 06:21:13;;;;;;;8.80;2.38;;;;;;;;;;5017513;28;20025;-76
2022/06/03 06:23:42;;;;;;;16.27;2.97;;;;;;;;;;5019736;28;20117;-76
2022/06/03 06:26:27;;;;;;;13.55;2.63;;;;;;;;;;5028923;28;20038;-76
2022/06/03 06:28:58;;;;;;;13.70;3.47;;;;;;;;;;5030049;28;20045;-76
2022/06/03 06:31:27;;;;;;;16.90;3.15;;;;;;;;;;5027091;28;20138;-76
2022/06/03 06:33:53;;;;;;;12.68;3.47;;;;;;;;;;5023966;28;20132;-76
2022/06/03 06:36:25;;;;;;;13.18;3.50;;;;;;;;;;5027101;28;20113;-76
2022/06/03 06:38:51;;;;;;;10.07;3.15;;;;;;;;;;5016881;28;20128;-76
2022/06/03 06:41:36;;;;;;;11.73;2.53;;;;;;;;;;5027299;28;20117;-76
2022/06/03 06:44:11;;;;;;;8.18;2.42;;;;;;;;;;5026754;28;20763;-76
2022/06/03 06:46:47;;;;;;;10.98;3.10;;;;;;;;;;5015781;28;20029;-76
2022/06/03 06:49:27;;;;;;;10.52;2.38;;;;;;;;;;5025501;28;20065;-76
2022/06/03 06:52:11;;;;;;;9.60;2.55;;;;;;;;;;5022443;28;20788;-76
2022/06/03 06:54:45;;;;;;;7.35;2.47;;;;;;;;;;5033739;28;20785;-76
2022/06/03 06:57:17;;;;;;;10.15;2.35;;;;;;;;;;5020657;28;20032;-76
2022/06/03 06:59:49;;;;;;;9.98;2.80;;;;;;;;;;5023573;28;20419;-76
2022/06/03 07:02:44;;;;;;;8.82;2.47;;;;;;;;;;5027236;28;20033;-76
2022/06/03 07:05:18;;;;;;;11.60;2.33;;;;;;;;;;5010277;28;20080;-76
2022/06/03 07:07:48;;;;;;;10.07;2.40;;;;;;;;;;5021042;28;20029;-76
2022/06/03 07:10:19;;;;;;;9.25;2.30;;;;;;;;;;5039260;28;20061;-76
2022/06/03 07:12:50;;;;;;;5.90;1.73;;;;;;;;;;5022554;28;20597;-76
2022/06/03 07:15:16;;;;;;;6.63;1.90;;;;;;;;;;5027229;28;20034;-76
2022/06/03 07:20:43;;;;;;;9.70;2.75;;;;;;;;;;5028195;28;20072;-76
2022/06/03 07:23:12;;;;;;;8.50;1.88;;;;;;;;;;5028533;28;20045;-76
2022/06/03 07:25:49;;;;;;;13.30;2.83;;;;;;;;;;5024636;28;20033;-76
2022/06/03 07:28:48;;;;;;;11.88;2.38;;;;;;;;;;5013045;28;20617;-76
2022/06/03 07:31:21;;;;;;;9.75;2.95;;;;;;;;;;5017194;28;20055;-76
2022/06/03 07:33:53;;;;;;;8.07;2.15;;;;;;;;;;5030341;28;20033;-76
2022/06/03 07:36:22;;;;;;;8.00;1.85;;;;;;;;;;5021884;28;20113;-76
2022/06/03 07:38:51;;;;;;;7.93;2.08;;;;;;;;;;5017993;28;20030;-76
2022/06/03 07:41:40;;;;;;;6.88;1.83;;;;;;;;;;5018972;28;20021;-76
2022/06/03 07:44:12;;;;;;;6.80;1.73;;;;;;;;;;5023249;28;20091;-76
2022/06/03 07:46:50;;;;;;;9.93;2.00;;;;;;;;;;5023395;28;20096;-76
2022/06/03 07:49:17;;;;;;;5.20;1.67;;;;;;;;;;5015583;28;20049;-76
2022/06/03 07:51:47;;;;;;;8.43;2.10;;;;;;;;;;5023396;28;20043;-76
2022/06/03 07:54:18;;;;;;;10.90;2.40;;;;;;;;;;5013534;28;20038;-76
2022/06/03 07:56:44;;;;;;;8.85;2.45;;;;;;;;;;5025116;28;20112;-76
2022/06/03 07:59:15;;;;;;;13.35;2.17;;;;;;;;;;5024688;28;20109;-76
2022/06/03 08:01:43;;;;;;;11.27;2.63;;;;;;;;;;5026007;28;20520;-76
2022/06/03 08:04:13;;;;;;;8.95;2.05;;;;;;;;;;5019304;28;20275;-76
2022/06/03 08:12:15;;;;;;;9.27;1.80;;;;;;;;;;5027995;28;20044;-76
2022/06/03 08:14:42;;;;;;;8.80;1.90;;;;;;;;;;5028460;28;20026;-76
2022/06/03 08:17:09;;;;;;;10.57;2.00;;;;;;;;;;5024129;28;20381;-76
2022/06/03 08:19:36;;;;;;;6.20;2.20;;;;;;;;;;5022190;28;20083;-76
2022/06/03 08:22:04;;;;;;;9.20;1.98;;;;;;;;;;5016035;28;21045;-76
2022/06/03 08:24:32;;;;;;;12.13;1.92;;;;;;;;;;5019228;28;20403;-76
2022/06/03 08:27:01;;;;;;;5.78;1.65;;;;;;;;;;5021841;28;20029;-76
2022/06/03 08:29:27;;;;;;;6.82;1.98;;;;;;;;;;5019040;28;20815;-76
2022/06/03 08:31:55;;;;;;;10.05;1.85;;;;;;;;;;5018330;28;20026;-76
2022/06/03 08:34:26;;;;;;;9.27;1.83;;;;;;;;;;5027781;28;20029;-76
2022/06/03 08:36:53;;;;;;;8.60;2.88;;;;;;;;;;5020947;28;20475;-76
2022/06/03 08:39:26;;;;;;;7.97;2.33;;;;;;;;;;5026535;28;20071;-76
2022/06/03 08:42:03;;;;;;;7.47;2.20;;;;;;;;;;5020225;28;20034;-76
2022/06/03 08:44:32;;;;;;;10.00;2.65;;;;;;;;;;5023442;28;20740;-76
2022/06/03 08:47:06;;;;;;;7.68;2.30;;;;;;;;;;5032533;28;20033;-76
2022/06/03 08:49:59;;;;;;;7.95;1.92;;;;;;;;;;5032361;28;20096;-76
2022/06/03 08:52:30;;;;;;;8.75;1.98;;;;;;;;;;5029895;28;20119;-76
2022/06/03 08:54:58;;;;;;;10.45;2.78;;;;;;;;;;5033617;28;20091;-76
2022/06/03 08:57:28;;;;;;;11.35;2.15;;;;;;;;;;5021307;28;20038;-76
2022/06/03 09:00:02;;;;;;;10.15;1.90;;;;;;;;;;5028725;28;20064;-76
2022/06/03 09:02:45;;;;;;;6.90;1.83;;;;;;;;;;5026877;28;20041;-76
2022/06/03 09:05:17;;;;;;;7.22;1.80;;;;;;;;;;5017332;28;20038;-76
2022/06/03 09:07:44;;;;;;;;;;;;;;;;;;5025703;28;20113;-76
2022/06/03 09:10:25;;;;;;;9.98;1.88;;;;;;;;;;5025072;28;19910;-76
2022/06/03 09:13:03;;;;;;;5.75;1.77;;;;;;;;;;5027318;28;20101;-76
2022/06/03 09:15:33;;;;;;;9.23;2.45;;;;;;;;;;5015893;28;20037;-76
2022/06/03 09:18:04;;;;;;;7.70;1.92;;;;;;;;;;5029177;28;20026;-76
2022/06/03 09:20:37;;;;;;;9.53;2.13;;;;;;;;;;5027836;28;20646;-76
2022/06/03 09:23:08;;;;;;;7.43;1.90;;;;;;;;;;5026031;28;20435;-76
2022/06/03 09:25:35;;;;;;;8.15;1.80;;;;;;;;;;5030094;28;20143;-76
2022/06/03 09:28:06;;;;;;;8.32;2.60;;;;;;;;;;5019937;28;20030;-76
2022/06/03 09:30:37;;;;;;;6.53;2.17;;;;;;;;;;5030223;28;20037;-76
2022/06/03 09:33:05;;;;;;;7.60;2.35;;;;;;;;;;5026718;28;20160;-76
2022/06/03 09:35:33;;;;;;;6.82;2.60;;;;;;;;;;5033114;28;20025;-76
2022/06/03 09:38:01;;;;;;;10.38;2.40;;;;;;;;;;5026484;28;20494;-76
2022/06/03 09:40:32;;;;;;;7.13;2.25;;;;;;;;;;5021715;28;20022;-76
2022/06/03 09:43:13;;;;;;;8.57;2.40;;;;;;;;;;5023938;28;20030;-76
2022/06/03 09:45:40;;;;;;;8.25;2.13;;;;;;;;;;5016703;28;20033;-76
2022/06/03 09:48:09;;;;;;;8.23;1.90;;;;;;;;;;5030957;28;20383;-76
2022/06/03 09:50:36;;;;;;;8.55;2.08;;;;;;;;;;5024673;28;20390;-75
2022/06/03 09:53:06;;;;;;;8.90;2.17;;;;;;;;;;5018675;28;20079;-76
2022/06/03 09:55:47;;;;;;;7.72;2.42;;;;;;;;;;5020164;28;20038;-76
2022/06/03 09:58:16;;;;;;;13.68;3.70;;;;;;;;;;5028616;28;20041;-76
2022/06/03 10:00:49;;;;;;;24.95;5.40;;;;;;;;;;5022834;28;20045;-76
2022/06/03 10:03:16;;;;;;;29.02;6.07;;;;;;;;;;5030942;28;20087;-76
2022/06/03 10:05:45;;;;;;;18.67;5.72;;;;;;;;;;5032203;28;20025;-76
2022/06/03 10:08:12;;;;;;;20.30;4.50;;;;;;;;;;5022977;28;20037;-76
2022/06/03 10:13:24;;;;;;;15.45;4.38;;;;;;;;;;5030455;28;20040;-76
2022/06/03 10:15:55;;;;;;;15.27;5.47;;;;;;;;;;5025769;28;20079;-76
2022/06/03 10:18:21;;;;;;;20.55;7.15;;;;;;;;;;5026583;28;20040;-76
2022/06/03 10:20:49;;;;;;;16.30;5.53;;;;;;;;;;5028361;28;20030;-76
2022/06/03 10:23:15;;;;;;;19.30;6.00;;;;;;;;;;5032153;28;20037;-76
2022/06/03 10:25:42;;;;;;;22.30;6.85;;;;;;;;;;5020016;28;20083;-77
2022/06/03 10:28:10;;;;;;;16.95;7.28;;;;;;;;;;5023991;28;20029;-76
2022/06/03 10:30:39;;;;;;;27.90;22.17;;;;;;;;;;5027931;28;20044;-76
2022/06/03 10:33:06;;;;;;;20.65;14.65;;;;;;;;;;5021026;28;20037;-76
2022/06/03 10:35:38;;;;;;;15.00;6.85;;;;;;;;;;5032053;28;20025;-76
2022/06/03 10:38:06;;;;;;;17.45;7.97;;;;;;;;;;5023279;28;20037;-76
2022/06/03 10:40:32;;;;;;;14.73;6.88;;;;;;;;;;5032649;28;20581;-76
2022/06/03 10:43:01;;;;;;;16.65;6.72;;;;;;;;;;5027693;28;20033;-76
2022/06/03 10:45:31;;;;;;;17.23;8.48;;;;;;;;;;5028766;28;20030;-76
2022/06/03 10:47:58;;;;;;;16.10;11.45;;;;;;;;;;5028561;28;20040;-76
2022/06/03 10:50:26;;;;;;;15.57;9.13;;;;;;;;;;5018392;28;20036;-76
2022/06/03 11:01:30;;;;;;;12.70;5.65;;;;;;;;;;5027981;28;20125;-76
2022/06/03 11:03:56;;;;;;;11.93;6.45;;;;;;;;;;5030057;28;20041;-76
2022/06/03 11:06:24;;;;;;;12.65;6.60;;;;;;;;;;5032770;28;20040;-76
2022/06/03 11:09:00;;;;;;;9.98;3.83;;;;;;;;;;5024344;28;20041;-75
2022/06/03 11:11:32;;;;;;;12.20;5.93;;;;;;;;;;5021546;28;20065;-76
2022/06/03 11:13:58;;;;;;;16.33;7.57;;;;;;;;;;5030966;28;20037;-76
2022/06/03 11:16:25;;;;;;;17.27;7.60;;;;;;;;;;5021438;28;20037;-76
2022/06/03 11:18:52;;;;;;;12.32;5.25;;;;;;;;;;5014791;28;20064;-76
2022/06/03 11:21:22;;;;;;;8.38;4.53;;;;;;;;;;5018396;28;20030;-76
2022/06/03 11:23:48;;;;;;;8.63;3.95;;;;;;;;;;5022479;28;20033;-76
2022/06/03 11:26:15;;;;;;;9.40;2.97;;;;;;;;;;5026055;28;20041;-76
2022/06/03 11:28:51;;;;;;;9.15;4.63;;;;;;;;;;5016914;28;20060;-76
2022/06/03 11:31:29;;;;;;;8.30;4.00;;;;;;;;;;5027762;28;20116;-77
2022/06/03 11:34:16;;;;;;;13.15;4.97;;;;;;;;;;5026929;28;20069;-76
2022/06/03 11:36:54;;;;;;;10.30;4.28;;;;;;;;;;5026545;28;20480;-76
2022/06/03 11:39:30;;;;;;;16.63;5.00;;;;;;;;;;5023019;28;20021;-76
2022/06/03 11:41:59;;;;;;;9.77;3.90;;;;;;;;;;5021108;28;20037;-76
2022/06/03 11:44:25;;;;;;;9.57;3.90;;;;;;;;;;5023538;28;20084;-76
2022/06/03 11:47:10;;;;;;;9.65;4.35;;;;;;;;;;5024062;28;20467;-76
2022/06/03 11:49:36;;;;;;;10.52;3.58;;;;;;;;;;5024708;28;20143;-76
2022/06/03 11:52:03;;;;;;;11.52;5.00;;;;;;;;;;5026957;28;20074;-76
2022/06/03 11:54:29;;;;;;;9.43;3.65;;;;;;;;;;5022112;28;20022;-76
2022/06/03 11:56:55;;;;;;;8.90;2.80;;;;;;;;;;5020811;28;20033;-76
2022/06/03 11:59:26;;;;;;;5.60;2.80;;;;;;;;;;5014785;28;20418;-76
2022/06/03 12:01:59;;;;;;;7.72;3.80;;;;;;;;;;5023108;28;20840;-76
2022/06/03 12:04:34;;;;;;;9.45;4.55;;;;;;;;;;5023145;28;20132;-76
2022/06/03 12:07:19;;;;;;;8.52;5.32;;;;;;;;;;5021086;28;20037;-76
2022/06/03 12:09:54;;;;;;;10.48;4.90;;;;;;;;;;5026473;28;20040;-76
2022/06/03 12:15:26;;;;;;;6.70;3.15;;;;;;;;;;5028027;28;20120;-76
2022/06/03 12:17:52;;;;;;;11.65;4.40;;;;;;;;;;5016957;28;20362;-76
2022/06/03 12:20:35;;;;;;;7.05;3.90;;;;;;;;;;5032022;28;20025;-76
2022/06/03 12:23:13;;;;;;;9.85;5.20;;;;;;;;;;5023400;28;20058;-76
2022/06/03 12:25:51;;;;;;;8.00;3.90;;;;;;;;;;5021834;28;20108;-76
2022/06/03 12:28:29;;;;;;;7.82;3.00;;;;;;;;;;5029802;28;20131;-76
2022/06/03 12:30:56;;;;;;;8.65;3.08;;;;;;;;;;5022198;28;20040;-76
2022/06/03 12:33:27;;;;;;;6.35;2.80;;;;;;;;;;5030381;28;20034;-77
2022/06/03 12:35:55;;;;;;;12.35;4.13;;;;;;;;;;5019218;28;20033;-76
2022/06/03 12:38:21;;;;;;;7.53;2.70;;;;;;;;;;5012697;28;20104;-76
2022/06/03 12:40:47;;;;;;;5.82;2.30;;;;;;;;;;5024472;28;20041;-76
2022/06/03 12:43:28;;;;;;;5.50;2.42;;;;;;;;;;5018545;28;20034;-76
2022/06/03 12:46:00;;;;;;;8.48;2.63;;;;;;;;;;5030515;28;20036;-76
2022/06/03 12:48:45;;;;;;;5.75;2.88;;;;;;;;;;5022741;28;20034;-76
2022/06/03 12:51:11;;;;;;;9.77;3.30;;;;;;;;;;5025287;28;20041;-76
2022/06/03 12:53:41;;;;;;;8.95;3.08;;;;;;;;;;5022240;28;20044;-76
2022/06/03 12:56:13;;;;;;;7.15;2.90;;;;;;;;;;5011699;28;20042;-77
2022/06/03 12:58:50;;;;;;;7.60;2.72;;;;;;;;;;5023784;28;20037;-76
2022/06/03 13:01:35;;;;;;;10.50;3.42;;;;;;;;;;5025226;28;20550;-76
2022/06/03 13:04:24;;;;;;;8.15;3.20;;;;;;;;;;5031003;28;20029;-76
2022/06/03 13:07:08;;;;;;;9.98;2.88;;;;;;;;;;5019539;28;20129;-76
2022/06/03 13:09:56;;;;;;;7.57;3.10;;;;;;;;;;5019074;28;20033;-77
2022/06/03 13:12:34;;;;;;;6.90;3.10;;;;;;;;;;5027598;28;20049;-77
2022/06/03 13:15:18;;;;;;;7.47;2.65;;;;;;;;;;5020535;28;20021;-76
2022/06/03 13:17:59;;;;;;;7.47;2.88;;;;;;;;;;5020549;28;20026;-77
2022/06/03 13:20:40;;;;;;;7.95;5.00;;;;;;;;;;5031861;28;20037;-77
2022/06/03 13:23:25;;;;;;;7.78;4.32;;;;;;;;;;5030716;28;20044;-76
2022/06/03 13:25:54;;;;;;;8.60;3.95;;;;;;;;;;5034059;28;20037;-77
2022/06/03 13:28:37;;;;;;;5.95;2.40;;;;;;;;;;5024958;28;20032;-77
2022/06/03 13:31:05;;;;;;;6.97;2.58;;;;;;;;;;5023470;28;20088;-76
2022/06/03 13:33:31;;;;;;;7.32;2.67;;;;;;;;;;5022371;28;20025;-77
2022/06/03 13:36:05;;;;;;;5.13;2.40;;;;;;;;;;5031372;28;20028;-77
2022/06/03 13:38:45;;;;;;;7.95;2.60;;;;;;;;;;5035480;28;20436;-77
2022/06/03 13:44:09;;;;;;;7.00;2.50;;;;;;;;;;5035306;28;20418;-77
2022/06/03 13:46:35;;;;;;;5.65;2.25;;;;;;;;;;5030961;28;20073;-77
2022/06/03 13:49:05;;;;;;;4.80;2.30;;;;;;;;;;5034385;28;20045;-77
2022/06/03 13:51:33;;;;;;;3.78;2.10;;;;;;;;;;5032192;28;20065;-77
2022/06/03 13:54:08;;;;;;;4.70;1.90;;;;;;;;;;5025172;28;20026;-77
2022/06/03 13:56:34;;;;;;;5.50;2.30;;;;;;;;;;5028894;28;20044;-77
2022/06/03 13:59:02;;;;;;;8.63;2.10;;;;;;;;;;5021933;28;20026;-77
2022/06/03 14:01:31;;;;;;;5.97;2.08;;;;;;;;;;5034590;28;20045;-77
2022/06/03 14:04:01;;;;;;;8.23;2.20;;;;;;;;;;5027748;28;20495;-77
2022/06/03 14:06:34;;;;;;;5.50;2.05;;;;;;;;;;5024359;28;20040;-77
2022/06/03 14:09:06;;;;;;;5.93;2.22;;;;;;;;;;5030147;28;20029;-77
2022/06/03 14:11:32;;;;;;;;;;;;;;;;;;5034593;28;20033;-77
2022/06/03 14:14:01;;;;;;;4.53;1.73;;;;;;;;;;5016938;28;19976;-77
2022/06/03 14:16:48;;;;;;;8.93;1.85;;;;;;;;;;5014761;28;20041;-77
2022/06/03 14:19:33;;;;;;;7.93;2.30;;;;;;;;;;5019308;28;20093;-77
2022/06/03 14:22:03;;;;;;;7.82;2.35;;;;;;;;;;5025224;28;20025;-77
2022/06/03 14:24:36;;;;;;;9.18;2.40;;;;;;;;;;5017452;28;20060;-77
2022/06/03 14:27:21;;;;;;;9.02;2.60;;;;;;;;;;5022717;28;20096;-77
2022/06/03 14:29:55;;;;;;;8.52;2.30;;;;;;;;;;5025178;28;20029;-77
2022/06/03 14:32:23;;;;;;;6.55;1.52;;;;;;;;;;5027849;28;20038;-77
2022/06/03 14:34:51;;;;;;;6.13;1.60;;;;;;;;;;5029182;28;20030;-77
2022/06/03 14:37:20;;;;;;;9.48;2.00;;;;;;;;;;5017507;28;20045;-77
2022/06/03 14:39:48;;;;;;;7.97;1.83;;;;;;;;;;5023264;28;20038;-77
2022/06/03 14:42:26;;;;;;;7.18;1.90;;;;;;;;;;5033645;28;20437;-77
2022/06/03 14:44:52;;;;;;;5.28;1.95;;;;;;;;;;5027041;28;20026;-77
2022/06/03 14:47:33;;;;;;;7.65;1.92;;;;;;;;;;5019322;28;20072;-77
2022/06/03 14:50:16;;;;;;;6.15;1.70;;;;;;;;;;5032478;28;20036;-77
2022/06/03 14:52:50;;;;;;;6.55;1.88;;;;;;;;;;5025930;28;20041;-77
2022/06/03 14:55:26;;;;;;;8.52;2.50;;;;;;;;;;5029274;28;20040;-77
2022/06/03 14:57:55;;;;;;;8.57;2.35;;;;;;;;;;5032564;28;20108;-77
2022/06/03 15:00:32;;;;;;;8.13;1.90;;;;;;;;;;5017738;28;20483;-77
2022/06/03 15:03:20;;;;;;;10.00;1.98;;;;;;;;;;5026840;28;20508;-77
2022/06/03 15:05:46;;;;;;;6.72;1.70;;;;;;;;;;5030857;28;20108;-77
2022/06/03 15:08:16;;;;;;;11.95;2.13;;;;;;;;;;5032368;28;20105;-77
2022/06/03 15:10:47;;;;;;;5.95;2.00;;;;;;;;;;5033201;28;20045;-77
2022/06/03 15:13:26;;;;;;;7.20;1.83;;;;;;;;;;5025357;28;20029;-77
2022/06/03 15:15:52;;;;;;;5.60;1.90;;;;;;;;;;5033444;28;20109;-77
2022/06/03 15:18:20;;;;;;;7.80;2.75;;;;;;;;;;5026620;28;20053;-77
2022/06/03 15:21:24;;;;;;;6.50;1.90;;;;;;;;;;5032750;28;20029;-77
2022/06/03 15:23:55;;;;;;;8.60;2.25;;;;;;;;;;5023446;28;20520;-77
2022/06/03 15:26:24;;;;;;;6.55;2.00;;;;;;;;;;5017142;28;20132;-77
2022/06/03 15:28:56;;;;;;;8.10;1.70;;;;;;;;;;5020326;28;20030;-77
2022/06/03 15:31:24;;;;;;;9.73;2.25;;;;;;;;;;5025741;28;20229;-77
2022/06/03 15:33:55;;;;;;;7.97;1.90;;;;;;;;;;5031447;28;20037;-77
2022/06/03 15:36:23;;;;;;;9.13;2.25;;;;;;;;;;5032883;28;20069;-77
2022/06/03 15:38:51;;;;;;;8.48;2.17;;;;;;;;;;5032941;28;20104;-77
2022/06/03 15:41:40;;;;;;;8.63;2.28;;;;;;;;;;5032019;28;20049;-77
2022/06/03 15:44:06;;;;;;;9.48;2.25;;;;;;;;;;5021784;28;20041;-77
2022/06/03 15:46:40;;;;;;;7.40;1.77;;;;;;;;;;5038634;28;20394;-77
2022/06/03 15:49:10;;;;;;;5.65;1.83;;;;;;;;;;5021170;28;20056;-77
2022/06/03 15:51:44;;;;;;;13.50;2.13;;;;;;;;;;5032413;28;20045;-77
2022/06/03 15:54:20;;;;;;;10.63;2.47;;;;;;;;;;5032276;28;20372;-77